sensor_id;sensor_type;location;lat;lon;timestamp;P1;durP1;ratioP1;P2;durP2;ratioP2
17631;SDS011;8934;51.194;17.150;2023-11-21T00:01:41;8.68;;;4.60;;
17631;SDS011;8934;51.194;17.150;2023-11-21T00:04:28;9.57;;;4.45;;
17631;SDS011;8934;51.194;17.150;2023-11-21T00:07:16;5.93;;;2.97;;
17631;SDS011;8934;51.194;17.150;2023-11-21T00:10:05;4.93;;;2.75;;
17631;SDS011;8934;51.194;17.150;2023-11-21T00:12:54;9.85;;;3.20;;
17631;SDS011;8934;51.194;17.150;2023-11-21T00:15:41;10.85;;;2.65;;
17631;SDS011;8934;51.194;17.150;2023-11-21T00:18:29;4.68;;;2.65;;
17631;SDS011;8934;51.194;17.150;2023-11-21T00:21:16;5.75;;;3.60;;
17631;SDS011;8934;51.194;17.150;2023-11-21T00:24:04;3.22;;;2.33;;
17631;SDS011;8934;51.194;17.150;2023-11-21T00:26:53;6.65;;;2.55;;
17631;SDS011;8934;51.194;17.150;2023-11-21T00:29:40;6.60;;;4.03;;
17631;SDS011;8934;51.194;17.150;2023-11-21T00:32:27;9.75;;;3.55;;
17631;SDS011;8934;51.194;17.150;2023-11-21T00:35:14;6.05;;;2.72;;
17631;SDS011;8934;51.194;17.150;2023-11-21T00:38:02;7.13;;;3.72;;
17631;SDS011;8934;51.194;17.150;2023-11-21T00:40:51;6.57;;;4.45;;
17631;SDS011;8934;51.194;17.150;2023-11-21T00:43:42;11.93;;;4.43;;
17631;SDS011;8934;51.194;17.150;2023-11-21T00:46:30;7.90;;;3.58;;
17631;SDS011;8934;51.194;17.150;2023-11-21T00:49:18;9.07;;;4.93;;
17631;SDS011;8934;51.194;17.150;2023-11-21T00:52:07;7.40;;;3.65;;
17631;SDS011;8934;51.194;17.150;2023-11-21T00:54:55;7.03;;;3.47;;
17631;SDS011;8934;51.194;17.150;2023-11-21T00:57:46;4.18;;;2.05;;
17631;SDS011;8934;51.194;17.150;2023-11-21T01:00:34;4.53;;;1.88;;
17631;SDS011;8934;51.194;17.150;2023-11-21T01:03:25;2.40;;;1.50;;
17631;SDS011;8934;51.194;17.150;2023-11-21T01:06:13;6.70;;;1.92;;
17631;SDS011;8934;51.194;17.150;2023-11-21T01:09:01;5.38;;;2.58;;
17631;SDS011;8934;51.194;17.150;2023-11-21T01:11:53;3.35;;;1.83;;
17631;SDS011;8934;51.194;17.150;2023-11-21T01:14:40;5.35;;;2.28;;
17631;SDS011;8934;51.194;17.150;2023-11-21T01:17:29;5.18;;;2.45;;
17631;SDS011;8934;51.194;17.150;2023-11-21T01:20:16;3.63;;;2.13;;
17631;SDS011;8934;51.194;17.150;2023-11-21T01:23:05;5.40;;;1.80;;
17631;SDS011;8934;51.194;17.150;2023-11-21T01:25:52;5.18;;;1.88;;
17631;SDS011;8934;51.194;17.150;2023-11-21T01:28:40;6.50;;;1.88;;
17631;SDS011;8934;51.194;17.150;2023-11-21T01:31:27;4.00;;;2.03;;
17631;SDS011;8934;51.194;17.150;2023-11-21T01:34:17;2.67;;;1.92;;
17631;SDS011;8934;51.194;17.150;2023-11-21T01:37:05;6.00;;;2.55;;
17631;SDS011;8934;51.194;17.150;2023-11-21T01:39:52;4.45;;;1.85;;
17631;SDS011;8934;51.194;17.150;2023-11-21T01:42:40;3.50;;;2.10;;
17631;SDS011;8934;51.194;17.150;2023-11-21T01:45:29;2.80;;;1.90;;
17631;SDS011;8934;51.194;17.150;2023-11-21T01:48:20;2.50;;;1.75;;
17631;SDS011;8934;51.194;17.150;2023-11-21T01:51:09;3.13;;;1.50;;
17631;SDS011;8934;51.194;17.150;2023-11-21T01:53:57;4.13;;;2.25;;
17631;SDS011;8934;51.194;17.150;2023-11-21T01:56:45;4.97;;;2.47;;
17631;SDS011;8934;51.194;17.150;2023-11-21T01:59:34;3.03;;;1.55;;
17631;SDS011;8934;51.194;17.150;2023-11-21T02:02:23;5.35;;;1.63;;
17631;SDS011;8934;51.194;17.150;2023-11-21T02:05:11;4.50;;;1.95;;
17631;SDS011;8934;51.194;17.150;2023-11-21T02:08:01;3.92;;;1.35;;
17631;SDS011;8934;51.194;17.150;2023-11-21T02:10:49;4.22;;;1.73;;
17631;SDS011;8934;51.194;17.150;2023-11-21T02:13:38;3.10;;;1.52;;
17631;SDS011;8934;51.194;17.150;2023-11-21T02:16:28;4.90;;;1.92;;
17631;SDS011;8934;51.194;17.150;2023-11-21T02:19:18;2.55;;;1.50;;
17631;SDS011;8934;51.194;17.150;2023-11-21T02:22:08;2.95;;;1.63;;
17631;SDS011;8934;51.194;17.150;2023-11-21T02:24:59;4.00;;;1.88;;
17631;SDS011;8934;51.194;17.150;2023-11-21T02:27:46;4.40;;;1.90;;
17631;SDS011;8934;51.194;17.150;2023-11-21T02:30:34;2.88;;;1.98;;
17631;SDS011;8934;51.194;17.150;2023-11-21T02:33:23;3.13;;;1.02;;
17631;SDS011;8934;51.194;17.150;2023-11-21T02:36:10;2.38;;;1.40;;
17631;SDS011;8934;51.194;17.150;2023-11-21T02:38:58;1.70;;;1.25;;
17631;SDS011;8934;51.194;17.150;2023-11-21T02:41:47;2.67;;;1.13;;
17631;SDS011;8934;51.194;17.150;2023-11-21T02:44:34;3.00;;;1.63;;
17631;SDS011;8934;51.194;17.150;2023-11-21T02:47:22;2.45;;;1.42;;
17631;SDS011;8934;51.194;17.150;2023-11-21T02:50:10;4.22;;;1.40;;
17631;SDS011;8934;51.194;17.150;2023-11-21T02:52:58;3.13;;;1.45;;
17631;SDS011;8934;51.194;17.150;2023-11-21T02:55:46;6.03;;;1.45;;
17631;SDS011;8934;51.194;17.150;2023-11-21T02:58:35;5.32;;;1.63;;
17631;SDS011;8934;51.194;17.150;2023-11-21T03:01:23;5.68;;;1.10;;
17631;SDS011;8934;51.194;17.150;2023-11-21T03:04:11;3.05;;;1.70;;
17631;SDS011;8934;51.194;17.150;2023-11-21T03:07:05;3.42;;;2.47;;
17631;SDS011;8934;51.194;17.150;2023-11-21T03:09:52;2.10;;;1.77;;
17631;SDS011;8934;51.194;17.150;2023-11-21T03:12:40;3.88;;;2.03;;
17631;SDS011;8934;51.194;17.150;2023-11-21T03:15:29;6.43;;;2.00;;
17631;SDS011;8934;51.194;17.150;2023-11-21T03:18:18;2.95;;;1.65;;
17631;SDS011;8934;51.194;17.150;2023-11-21T03:21:08;5.32;;;2.33;;
17631;SDS011;8934;51.194;17.150;2023-11-21T03:23:55;2.83;;;1.83;;
17631;SDS011;8934;51.194;17.150;2023-11-21T03:26:44;3.05;;;1.98;;
17631;SDS011;8934;51.194;17.150;2023-11-21T03:29:32;3.15;;;1.80;;
17631;SDS011;8934;51.194;17.150;2023-11-21T03:32:21;5.40;;;2.42;;
17631;SDS011;8934;51.194;17.150;2023-11-21T03:35:09;12.43;;;2.83;;
17631;SDS011;8934;51.194;17.150;2023-11-21T03:37:57;3.00;;;1.98;;
17631;SDS011;8934;51.194;17.150;2023-11-21T03:40:47;3.58;;;1.88;;
17631;SDS011;8934;51.194;17.150;2023-11-21T03:43:36;4.10;;;2.03;;
17631;SDS011;8934;51.194;17.150;2023-11-21T03:46:24;5.68;;;2.90;;
17631;SDS011;8934;51.194;17.150;2023-11-21T03:49:13;5.88;;;2.30;;
17631;SDS011;8934;51.194;17.150;2023-11-21T03:52:01;5.05;;;2.28;;
17631;SDS011;8934;51.194;17.150;2023-11-21T03:54:50;5.00;;;2.53;;
17631;SDS011;8934;51.194;17.150;2023-11-21T03:57:38;3.55;;;2.38;;
17631;SDS011;8934;51.194;17.150;2023-11-21T04:00:26;9.43;;;2.78;;
17631;SDS011;8934;51.194;17.150;2023-11-21T04:03:13;7.47;;;2.97;;
17631;SDS011;8934;51.194;17.150;2023-11-21T04:06:03;9.88;;;3.33;;
17631;SDS011;8934;51.194;17.150;2023-11-21T04:08:52;7.22;;;2.83;;
17631;SDS011;8934;51.194;17.150;2023-11-21T04:11:39;5.00;;;2.17;;
17631;SDS011;8934;51.194;17.150;2023-11-21T04:14:28;7.18;;;3.67;;
17631;SDS011;8934;51.194;17.150;2023-11-21T04:17:17;4.72;;;2.05;;
17631;SDS011;8934;51.194;17.150;2023-11-21T04:20:06;8.80;;;3.08;;
17631;SDS011;8934;51.194;17.150;2023-11-21T04:22:57;7.25;;;2.58;;
17631;SDS011;8934;51.194;17.150;2023-11-21T04:25:44;7.78;;;3.22;;
17631;SDS011;8934;51.194;17.150;2023-11-21T04:28:32;7.53;;;3.10;;
17631;SDS011;8934;51.194;17.150;2023-11-21T04:31:20;5.57;;;3.47;;
17631;SDS011;8934;51.194;17.150;2023-11-21T04:34:08;5.45;;;2.58;;
17631;SDS011;8934;51.194;17.150;2023-11-21T04:36:56;4.47;;;2.28;;
17631;SDS011;8934;51.194;17.150;2023-11-21T04:39:45;8.00;;;3.20;;
17631;SDS011;8934;51.194;17.150;2023-11-21T04:42:33;4.13;;;2.38;;
17631;SDS011;8934;51.194;17.150;2023-11-21T04:45:22;4.55;;;2.40;;
17631;SDS011;8934;51.194;17.150;2023-11-21T04:48:09;3.67;;;2.40;;
17631;SDS011;8934;51.194;17.150;2023-11-21T04:50:57;6.53;;;2.42;;
17631;SDS011;8934;51.194;17.150;2023-11-21T04:53:44;3.10;;;2.05;;
17631;SDS011;8934;51.194;17.150;2023-11-21T04:56:33;5.18;;;2.38;;
17631;SDS011;8934;51.194;17.150;2023-11-21T04:59:21;4.25;;;2.55;;
17631;SDS011;8934;51.194;17.150;2023-11-21T05:02:10;6.13;;;2.70;;
17631;SDS011;8934;51.194;17.150;2023-11-21T05:05:18;4.22;;;2.58;;
17631;SDS011;8934;51.194;17.150;2023-11-21T05:08:06;8.52;;;2.95;;
17631;SDS011;8934;51.194;17.150;2023-11-21T05:10:54;7.90;;;2.92;;
17631;SDS011;8934;51.194;17.150;2023-11-21T05:13:42;4.93;;;2.40;;
17631;SDS011;8934;51.194;17.150;2023-11-21T05:16:30;4.43;;;2.35;;
17631;SDS011;8934;51.194;17.150;2023-11-21T05:19:18;3.38;;;2.00;;
17631;SDS011;8934;51.194;17.150;2023-11-21T05:22:06;6.50;;;2.50;;
17631;SDS011;8934;51.194;17.150;2023-11-21T05:24:54;9.00;;;2.47;;
17631;SDS011;8934;51.194;17.150;2023-11-21T05:27:42;5.50;;;2.45;;
17631;SDS011;8934;51.194;17.150;2023-11-21T05:30:31;4.82;;;2.45;;
17631;SDS011;8934;51.194;17.150;2023-11-21T05:33:19;4.47;;;2.33;;
17631;SDS011;8934;51.194;17.150;2023-11-21T05:36:07;6.47;;;2.38;;
17631;SDS011;8934;51.194;17.150;2023-11-21T05:38:55;3.78;;;2.30;;
17631;SDS011;8934;51.194;17.150;2023-11-21T05:41:43;7.32;;;4.57;;
17631;SDS011;8934;51.194;17.150;2023-11-21T05:44:33;9.40;;;4.80;;
17631;SDS011;8934;51.194;17.150;2023-11-21T05:47:22;7.20;;;3.63;;
17631;SDS011;8934;51.194;17.150;2023-11-21T05:50:10;6.43;;;3.33;;
17631;SDS011;8934;51.194;17.150;2023-11-21T05:53:00;6.35;;;2.55;;
17631;SDS011;8934;51.194;17.150;2023-11-21T05:55:48;15.93;;;5.68;;
17631;SDS011;8934;51.194;17.150;2023-11-21T05:58:35;29.70;;;9.10;;
17631;SDS011;8934;51.194;17.150;2023-11-21T06:01:23;15.90;;;7.22;;
17631;SDS011;8934;51.194;17.150;2023-11-21T06:04:15;10.65;;;4.88;;
17631;SDS011;8934;51.194;17.150;2023-11-21T06:07:04;7.35;;;4.20;;
17631;SDS011;8934;51.194;17.150;2023-11-21T06:09:53;4.82;;;3.13;;
17631;SDS011;8934;51.194;17.150;2023-11-21T06:12:40;9.15;;;3.95;;
17631;SDS011;8934;51.194;17.150;2023-11-21T06:15:29;8.38;;;4.93;;
17631;SDS011;8934;51.194;17.150;2023-11-21T06:18:17;20.58;;;7.60;;
17631;SDS011;8934;51.194;17.150;2023-11-21T06:21:08;6.80;;;3.70;;
17631;SDS011;8934;51.194;17.150;2023-11-21T06:23:56;6.18;;;3.50;;
17631;SDS011;8934;51.194;17.150;2023-11-21T06:26:44;6.25;;;3.40;;
17631;SDS011;8934;51.194;17.150;2023-11-21T06:29:31;8.38;;;3.72;;
17631;SDS011;8934;51.194;17.150;2023-11-21T06:32:19;9.35;;;3.28;;
17631;SDS011;8934;51.194;17.150;2023-11-21T06:35:08;8.73;;;4.43;;
17631;SDS011;8934;51.194;17.150;2023-11-21T06:37:58;5.78;;;2.92;;
17631;SDS011;8934;51.194;17.150;2023-11-21T06:40:46;5.78;;;2.70;;
17631;SDS011;8934;51.194;17.150;2023-11-21T06:43:33;4.80;;;2.80;;
17631;SDS011;8934;51.194;17.150;2023-11-21T06:46:21;6.15;;;3.67;;
17631;SDS011;8934;51.194;17.150;2023-11-21T06:49:10;9.57;;;3.28;;
17631;SDS011;8934;51.194;17.150;2023-11-21T06:51:58;6.45;;;3.58;;
17631;SDS011;8934;51.194;17.150;2023-11-21T06:54:50;6.60;;;3.05;;
17631;SDS011;8934;51.194;17.150;2023-11-21T06:57:38;6.18;;;2.42;;
17631;SDS011;8934;51.194;17.150;2023-11-21T07:00:25;7.80;;;3.35;;
17631;SDS011;8934;51.194;17.150;2023-11-21T07:03:14;11.75;;;2.83;;
17631;SDS011;8934;51.194;17.150;2023-11-21T07:06:05;5.10;;;2.85;;
17631;SDS011;8934;51.194;17.150;2023-11-21T07:08:53;8.10;;;3.25;;
17631;SDS011;8934;51.194;17.150;2023-11-21T07:11:42;7.88;;;2.90;;
17631;SDS011;8934;51.194;17.150;2023-11-21T07:14:29;9.40;;;3.85;;
17631;SDS011;8934;51.194;17.150;2023-11-21T07:17:18;6.28;;;3.15;;
17631;SDS011;8934;51.194;17.150;2023-11-21T07:20:06;4.68;;;3.08;;
17631;SDS011;8934;51.194;17.150;2023-11-21T07:22:55;5.13;;;2.88;;
17631;SDS011;8934;51.194;17.150;2023-11-21T07:25:44;4.10;;;2.83;;
17631;SDS011;8934;51.194;17.150;2023-11-21T07:28:33;8.82;;;4.60;;
17631;SDS011;8934;51.194;17.150;2023-11-21T07:31:21;7.35;;;3.60;;
17631;SDS011;8934;51.194;17.150;2023-11-21T07:34:08;5.47;;;3.58;;
17631;SDS011;8934;51.194;17.150;2023-11-21T07:36:57;9.88;;;3.75;;
17631;SDS011;8934;51.194;17.150;2023-11-21T07:39:45;5.65;;;2.88;;
17631;SDS011;8934;51.194;17.150;2023-11-21T07:42:33;8.38;;;3.83;;
17631;SDS011;8934;51.194;17.150;2023-11-21T07:45:22;6.15;;;3.53;;
17631;SDS011;8934;51.194;17.150;2023-11-21T07:48:09;6.57;;;3.10;;
17631;SDS011;8934;51.194;17.150;2023-11-21T07:50:57;9.15;;;4.72;;
17631;SDS011;8934;51.194;17.150;2023-11-21T07:53:45;7.72;;;4.43;;
17631;SDS011;8934;51.194;17.150;2023-11-21T07:56:33;8.45;;;3.85;;
17631;SDS011;8934;51.194;17.150;2023-11-21T07:59:20;7.15;;;3.50;;
17631;SDS011;8934;51.194;17.150;2023-11-21T08:02:09;8.25;;;3.55;;
17631;SDS011;8934;51.194;17.150;2023-11-21T08:04:57;6.85;;;3.60;;
17631;SDS011;8934;51.194;17.150;2023-11-21T08:07:45;5.38;;;3.03;;
17631;SDS011;8934;51.194;17.150;2023-11-21T08:10:32;4.38;;;2.38;;
17631;SDS011;8934;51.194;17.150;2023-11-21T08:13:21;4.93;;;2.90;;
17631;SDS011;8934;51.194;17.150;2023-11-21T08:16:09;9.30;;;3.63;;
17631;SDS011;8934;51.194;17.150;2023-11-21T08:18:59;5.43;;;3.38;;
17631;SDS011;8934;51.194;17.150;2023-11-21T08:21:48;5.32;;;3.30;;
17631;SDS011;8934;51.194;17.150;2023-11-21T08:24:36;6.07;;;3.63;;
17631;SDS011;8934;51.194;17.150;2023-11-21T08:27:26;4.03;;;2.95;;
17631;SDS011;8934;51.194;17.150;2023-11-21T08:30:13;5.28;;;2.67;;
17631;SDS011;8934;51.194;17.150;2023-11-21T08:33:03;5.63;;;2.90;;
17631;SDS011;8934;51.194;17.150;2023-11-21T08:35:52;6.68;;;3.20;;
17631;SDS011;8934;51.194;17.150;2023-11-21T08:38:40;6.75;;;3.08;;
17631;SDS011;8934;51.194;17.150;2023-11-21T08:41:27;5.57;;;2.67;;
17631;SDS011;8934;51.194;17.150;2023-11-21T08:44:16;8.63;;;3.53;;
17631;SDS011;8934;51.194;17.150;2023-11-21T08:47:04;6.38;;;3.20;;
17631;SDS011;8934;51.194;17.150;2023-11-21T08:49:54;5.60;;;3.45;;
17631;SDS011;8934;51.194;17.150;2023-11-21T08:52:43;9.85;;;4.30;;
17631;SDS011;8934;51.194;17.150;2023-11-21T08:55:32;7.82;;;4.25;;
17631;SDS011;8934;51.194;17.150;2023-11-21T08:58:23;5.82;;;2.78;;
17631;SDS011;8934;51.194;17.150;2023-11-21T09:01:11;4.75;;;3.60;;
17631;SDS011;8934;51.194;17.150;2023-11-21T09:03:58;8.68;;;3.75;;
17631;SDS011;8934;51.194;17.150;2023-11-21T09:06:46;7.75;;;3.88;;
17631;SDS011;8934;51.194;17.150;2023-11-21T09:09:36;6.68;;;3.95;;
17631;SDS011;8934;51.194;17.150;2023-11-21T09:12:23;9.00;;;3.78;;
17631;SDS011;8934;51.194;17.150;2023-11-21T09:15:11;10.07;;;2.97;;
17631;SDS011;8934;51.194;17.150;2023-11-21T09:18:00;4.25;;;3.03;;
17631;SDS011;8934;51.194;17.150;2023-11-21T09:20:48;4.63;;;3.00;;
17631;SDS011;8934;51.194;17.150;2023-11-21T09:23:36;5.07;;;2.63;;
17631;SDS011;8934;51.194;17.150;2023-11-21T09:26:25;4.80;;;2.90;;
17631;SDS011;8934;51.194;17.150;2023-11-21T09:29:12;13.93;;;5.60;;
17631;SDS011;8934;51.194;17.150;2023-11-21T09:32:00;16.08;;;6.72;;
17631;SDS011;8934;51.194;17.150;2023-11-21T09:34:49;14.93;;;7.13;;
17631;SDS011;8934;51.194;17.150;2023-11-21T09:37:37;17.83;;;6.70;;
17631;SDS011;8934;51.194;17.150;2023-11-21T09:40:25;13.38;;;6.82;;
17631;SDS011;8934;51.194;17.150;2023-11-21T09:43:16;13.68;;;7.25;;
17631;SDS011;8934;51.194;17.150;2023-11-21T09:46:04;13.85;;;6.35;;
17631;SDS011;8934;51.194;17.150;2023-11-21T09:48:58;15.20;;;6.32;;
17631;SDS011;8934;51.194;17.150;2023-11-21T09:51:51;12.90;;;4.93;;
17631;SDS011;8934;51.194;17.150;2023-11-21T09:54:43;15.25;;;7.45;;
17631;SDS011;8934;51.194;17.150;2023-11-21T09:57:33;17.30;;;8.13;;
17631;SDS011;8934;51.194;17.150;2023-11-21T10:00:22;17.98;;;8.68;;
17631;SDS011;8934;51.194;17.150;2023-11-21T10:03:10;11.98;;;6.85;;
17631;SDS011;8934;51.194;17.150;2023-11-21T10:05:58;16.65;;;7.03;;
17631;SDS011;8934;51.194;17.150;2023-11-21T10:08:47;13.07;;;6.60;;
17631;SDS011;8934;51.194;17.150;2023-11-21T10:11:41;18.17;;;7.00;;
17631;SDS011;8934;51.194;17.150;2023-11-21T10:14:29;13.77;;;7.88;;
17631;SDS011;8934;51.194;17.150;2023-11-21T10:17:19;15.35;;;7.75;;
17631;SDS011;8934;51.194;17.150;2023-11-21T10:20:08;19.98;;;10.70;;
17631;SDS011;8934;51.194;17.150;2023-11-21T10:22:59;22.75;;;9.30;;
17631;SDS011;8934;51.194;17.150;2023-11-21T10:25:49;17.55;;;7.72;;
17631;SDS011;8934;51.194;17.150;2023-11-21T10:28:38;19.73;;;9.32;;
17631;SDS011;8934;51.194;17.150;2023-11-21T10:31:26;20.40;;;9.00;;
17631;SDS011;8934;51.194;17.150;2023-11-21T10:34:16;18.75;;;7.18;;
17631;SDS011;8934;51.194;17.150;2023-11-21T10:37:10;23.13;;;9.65;;
17631;SDS011;8934;51.194;17.150;2023-11-21T10:39:59;22.25;;;10.88;;
17631;SDS011;8934;51.194;17.150;2023-11-21T10:42:47;16.60;;;9.82;;
17631;SDS011;8934;51.194;17.150;2023-11-21T10:45:36;17.67;;;7.32;;
17631;SDS011;8934;51.194;17.150;2023-11-21T10:48:24;22.05;;;8.35;;
17631;SDS011;8934;51.194;17.150;2023-11-21T10:51:14;20.45;;;10.25;;
17631;SDS011;8934;51.194;17.150;2023-11-21T10:54:04;25.40;;;10.23;;
17631;SDS011;8934;51.194;17.150;2023-11-21T10:56:53;17.17;;;10.40;;
17631;SDS011;8934;51.194;17.150;2023-11-21T10:59:46;13.63;;;7.38;;
17631;SDS011;8934;51.194;17.150;2023-11-21T11:02:35;20.33;;;8.73;;
17631;SDS011;8934;51.194;17.150;2023-11-21T11:05:23;19.45;;;8.68;;
17631;SDS011;8934;51.194;17.150;2023-11-21T11:08:13;18.33;;;9.32;;
17631;SDS011;8934;51.194;17.150;2023-11-21T11:11:07;16.83;;;8.73;;
17631;SDS011;8934;51.194;17.150;2023-11-21T11:13:56;22.25;;;9.40;;
17631;SDS011;8934;51.194;17.150;2023-11-21T11:16:46;25.77;;;8.43;;
17631;SDS011;8934;51.194;17.150;2023-11-21T11:19:35;15.75;;;8.93;;
17631;SDS011;8934;51.194;17.150;2023-11-21T11:22:25;18.33;;;8.73;;
17631;SDS011;8934;51.194;17.150;2023-11-21T11:25:33;21.83;;;8.23;;
17631;SDS011;8934;51.194;17.150;2023-11-21T11:28:35;17.10;;;7.53;;
17631;SDS011;8934;51.194;17.150;2023-11-21T11:31:33;15.82;;;9.02;;
17631;SDS011;8934;51.194;17.150;2023-11-21T11:34:29;15.40;;;7.70;;
17631;SDS011;8934;51.194;17.150;2023-11-21T11:37:19;18.60;;;9.40;;
17631;SDS011;8934;51.194;17.150;2023-11-21T11:40:07;15.40;;;8.20;;
17631;SDS011;8934;51.194;17.150;2023-11-21T11:43:00;17.48;;;8.23;;
17631;SDS011;8934;51.194;17.150;2023-11-21T11:45:49;18.65;;;8.20;;
17631;SDS011;8934;51.194;17.150;2023-11-21T11:48:37;18.08;;;9.13;;
17631;SDS011;8934;51.194;17.150;2023-11-21T11:51:26;11.02;;;5.45;;
17631;SDS011;8934;51.194;17.150;2023-11-21T11:54:14;15.93;;;7.72;;
17631;SDS011;8934;51.194;17.150;2023-11-21T11:57:03;19.05;;;8.18;;
17631;SDS011;8934;51.194;17.150;2023-11-21T12:00:12;14.35;;;7.85;;
17631;SDS011;8934;51.194;17.150;2023-11-21T12:03:05;14.18;;;6.63;;
17631;SDS011;8934;51.194;17.150;2023-11-21T12:05:54;12.63;;;7.32;;
17631;SDS011;8934;51.194;17.150;2023-11-21T12:08:44;13.13;;;8.15;;
17631;SDS011;8934;51.194;17.150;2023-11-21T12:11:32;12.20;;;7.40;;
17631;SDS011;8934;51.194;17.150;2023-11-21T12:14:21;11.07;;;5.78;;
17631;SDS011;8934;51.194;17.150;2023-11-21T12:17:10;12.05;;;4.97;;
17631;SDS011;8934;51.194;17.150;2023-11-21T12:20:01;11.05;;;6.18;;
17631;SDS011;8934;51.194;17.150;2023-11-21T12:22:51;12.45;;;6.35;;
17631;SDS011;8934;51.194;17.150;2023-11-21T12:25:40;10.77;;;5.68;;
17631;SDS011;8934;51.194;17.150;2023-11-21T12:28:28;11.23;;;5.57;;
17631;SDS011;8934;51.194;17.150;2023-11-21T12:31:16;11.80;;;6.30;;
17631;SDS011;8934;51.194;17.150;2023-11-21T12:34:08;14.07;;;6.85;;
17631;SDS011;8934;51.194;17.150;2023-11-21T12:36:57;9.73;;;5.30;;
17631;SDS011;8934;51.194;17.150;2023-11-21T12:39:46;8.07;;;4.90;;
17631;SDS011;8934;51.194;17.150;2023-11-21T12:42:34;14.50;;;5.38;;
17631;SDS011;8934;51.194;17.150;2023-11-21T12:45:23;7.80;;;5.35;;
17631;SDS011;8934;51.194;17.150;2023-11-21T12:48:13;11.02;;;5.95;;
17631;SDS011;8934;51.194;17.150;2023-11-21T12:51:04;8.10;;;5.82;;
17631;SDS011;8934;51.194;17.150;2023-11-21T12:53:53;7.05;;;5.25;;
17631;SDS011;8934;51.194;17.150;2023-11-21T12:56:41;9.80;;;5.50;;
17631;SDS011;8934;51.194;17.150;2023-11-21T12:59:33;11.63;;;5.35;;
17631;SDS011;8934;51.194;17.150;2023-11-21T13:02:21;13.05;;;5.72;;
17631;SDS011;8934;51.194;17.150;2023-11-21T13:05:10;12.00;;;5.57;;
17631;SDS011;8934;51.194;17.150;2023-11-21T13:08:09;13.10;;;6.90;;
17631;SDS011;8934;51.194;17.150;2023-11-21T13:10:58;11.13;;;5.85;;
17631;SDS011;8934;51.194;17.150;2023-11-21T13:13:46;13.32;;;5.93;;
17631;SDS011;8934;51.194;17.150;2023-11-21T13:16:35;11.43;;;6.00;;
17631;SDS011;8934;51.194;17.150;2023-11-21T13:19:25;15.00;;;7.43;;
17631;SDS011;8934;51.194;17.150;2023-11-21T13:22:16;14.05;;;5.03;;
17631;SDS011;8934;51.194;17.150;2023-11-21T13:25:05;15.75;;;6.50;;
17631;SDS011;8934;51.194;17.150;2023-11-21T13:27:53;16.08;;;8.35;;
17631;SDS011;8934;51.194;17.150;2023-11-21T13:30:41;10.75;;;5.82;;
17631;SDS011;8934;51.194;17.150;2023-11-21T13:33:30;10.50;;;6.00;;
17631;SDS011;8934;51.194;17.150;2023-11-21T13:36:19;10.65;;;5.63;;
17631;SDS011;8934;51.194;17.150;2023-11-21T13:39:09;8.98;;;5.47;;
17631;SDS011;8934;51.194;17.150;2023-11-21T13:42:03;10.60;;;6.47;;
17631;SDS011;8934;51.194;17.150;2023-11-21T13:44:55;9.73;;;5.05;;
17631;SDS011;8934;51.194;17.150;2023-11-21T13:47:43;9.40;;;5.85;;
17631;SDS011;8934;51.194;17.150;2023-11-21T13:50:31;13.05;;;6.30;;
17631;SDS011;8934;51.194;17.150;2023-11-21T13:53:20;9.68;;;6.32;;
17631;SDS011;8934;51.194;17.150;2023-11-21T13:56:08;14.23;;;6.32;;
17631;SDS011;8934;51.194;17.150;2023-11-21T13:58:58;10.63;;;6.68;;
17631;SDS011;8934;51.194;17.150;2023-11-21T14:01:55;10.30;;;5.60;;
17631;SDS011;8934;51.194;17.150;2023-11-21T14:08:00;13.52;;;7.43;;
17631;SDS011;8934;51.194;17.150;2023-11-21T14:10:50;12.85;;;6.95;;
17631;SDS011;8934;51.194;17.150;2023-11-21T14:13:43;14.13;;;5.80;;
17631;SDS011;8934;51.194;17.150;2023-11-21T14:16:35;13.35;;;7.15;;
17631;SDS011;8934;51.194;17.150;2023-11-21T14:19:23;12.15;;;7.10;;
17631;SDS011;8934;51.194;17.150;2023-11-21T14:22:16;9.70;;;5.18;;
17631;SDS011;8934;51.194;17.150;2023-11-21T14:25:04;5.75;;;4.25;;
17631;SDS011;8934;51.194;17.150;2023-11-21T14:27:52;10.48;;;5.90;;
17631;SDS011;8934;51.194;17.150;2023-11-21T14:30:40;9.18;;;4.53;;
17631;SDS011;8934;51.194;17.150;2023-11-21T14:33:29;10.98;;;5.93;;
17631;SDS011;8934;51.194;17.150;2023-11-21T14:36:16;8.88;;;5.70;;
17631;SDS011;8934;51.194;17.150;2023-11-21T14:39:04;8.88;;;4.68;;
17631;SDS011;8934;51.194;17.150;2023-11-21T14:41:54;12.20;;;5.40;;
17631;SDS011;8934;51.194;17.150;2023-11-21T14:44:43;7.95;;;4.35;;
17631;SDS011;8934;51.194;17.150;2023-11-21T14:47:31;10.02;;;5.82;;
17631;SDS011;8934;51.194;17.150;2023-11-21T14:50:21;12.35;;;6.35;;
17631;SDS011;8934;51.194;17.150;2023-11-21T14:53:26;13.90;;;6.38;;
17631;SDS011;8934;51.194;17.150;2023-11-21T14:56:29;9.35;;;5.00;;
17631;SDS011;8934;51.194;17.150;2023-11-21T14:59:17;13.70;;;5.28;;
17631;SDS011;8934;51.194;17.150;2023-11-21T15:02:05;13.18;;;5.55;;
17631;SDS011;8934;51.194;17.150;2023-11-21T15:05:01;13.60;;;6.38;;
17631;SDS011;8934;51.194;17.150;2023-11-21T15:07:50;14.20;;;6.00;;
17631;SDS011;8934;51.194;17.150;2023-11-21T15:10:41;10.45;;;5.88;;
17631;SDS011;8934;51.194;17.150;2023-11-21T15:13:34;16.17;;;6.93;;
17631;SDS011;8934;51.194;17.150;2023-11-21T15:16:22;14.98;;;6.72;;
17631;SDS011;8934;51.194;17.150;2023-11-21T15:19:11;15.00;;;6.45;;
17631;SDS011;8934;51.194;17.150;2023-11-21T15:22:04;14.10;;;6.15;;
17631;SDS011;8934;51.194;17.150;2023-11-21T15:24:54;16.52;;;7.18;;
17631;SDS011;8934;51.194;17.150;2023-11-21T15:27:43;22.48;;;9.57;;
17631;SDS011;8934;51.194;17.150;2023-11-21T15:30:32;19.52;;;8.98;;
17631;SDS011;8934;51.194;17.150;2023-11-21T15:33:20;18.75;;;8.48;;
17631;SDS011;8934;51.194;17.150;2023-11-21T15:36:08;20.40;;;7.90;;
17631;SDS011;8934;51.194;17.150;2023-11-21T15:38:56;36.15;;;10.52;;
17631;SDS011;8934;51.194;17.150;2023-11-21T15:41:45;19.63;;;7.82;;
17631;SDS011;8934;51.194;17.150;2023-11-21T15:44:33;13.23;;;6.60;;
17631;SDS011;8934;51.194;17.150;2023-11-21T15:47:21;12.73;;;7.28;;
17631;SDS011;8934;51.194;17.150;2023-11-21T15:50:09;18.13;;;7.63;;
17631;SDS011;8934;51.194;17.150;2023-11-21T15:52:56;19.73;;;6.57;;
17631;SDS011;8934;51.194;17.150;2023-11-21T15:55:44;13.75;;;5.90;;
17631;SDS011;8934;51.194;17.150;2023-11-21T15:58:34;14.57;;;6.57;;
17631;SDS011;8934;51.194;17.150;2023-11-21T16:01:21;9.27;;;5.13;;
17631;SDS011;8934;51.194;17.150;2023-11-21T16:04:12;12.75;;;6.18;;
17631;SDS011;8934;51.194;17.150;2023-11-21T16:07:02;10.65;;;4.85;;
17631;SDS011;8934;51.194;17.150;2023-11-21T16:09:51;10.82;;;5.65;;
17631;SDS011;8934;51.194;17.150;2023-11-21T16:12:42;13.68;;;7.22;;
17631;SDS011;8934;51.194;17.150;2023-11-21T16:15:31;14.57;;;6.57;;
17631;SDS011;8934;51.194;17.150;2023-11-21T16:18:19;17.00;;;6.15;;
17631;SDS011;8934;51.194;17.150;2023-11-21T16:21:10;9.43;;;5.03;;
17631;SDS011;8934;51.194;17.150;2023-11-21T16:23:59;11.38;;;5.47;;
17631;SDS011;8934;51.194;17.150;2023-11-21T16:26:47;12.68;;;6.88;;
17631;SDS011;8934;51.194;17.150;2023-11-21T16:29:35;19.35;;;6.70;;
17631;SDS011;8934;51.194;17.150;2023-11-21T16:32:25;13.75;;;6.65;;
17631;SDS011;8934;51.194;17.150;2023-11-21T16:35:14;15.25;;;7.07;;
17631;SDS011;8934;51.194;17.150;2023-11-21T16:38:02;12.43;;;7.28;;
17631;SDS011;8934;51.194;17.150;2023-11-21T16:40:49;18.27;;;6.90;;
17631;SDS011;8934;51.194;17.150;2023-11-21T16:43:37;14.80;;;7.88;;
17631;SDS011;8934;51.194;17.150;2023-11-21T16:46:25;15.13;;;6.45;;
17631;SDS011;8934;51.194;17.150;2023-11-21T16:49:14;18.60;;;8.57;;
17631;SDS011;8934;51.194;17.150;2023-11-21T16:52:01;17.15;;;7.20;;
17631;SDS011;8934;51.194;17.150;2023-11-21T16:54:49;20.48;;;7.75;;
17631;SDS011;8934;51.194;17.150;2023-11-21T16:57:37;15.13;;;7.40;;